Latest Weather Observations for Cape Bruny AWS

IDT60801

Issued at 8:35 am EST Saturday 2 August 2014 (issued every 30 minutes, with the page automatically refreshed every 10 minutes)

About weather observations | Map of weather stations | Latest weather observations for TAS | Other Formats
Station Details ID: 094198 Name: CAPE BRUNY (CAPE BRUNY) Lat: -43.49 Lon: 147.14 Height: 59.7 m
Data from the previous 72 hours. | See also: Recent months at Cape Bruny AWS
Date/Time
EST
Temp
°C
App
Temp
°C
Dew
Point
Rel
Hum
%
Delta-T
°C
Wind Press
QNH
hPa
Press
MSL
hPa
Rain
since 9 am
mm
Dir
 
Spd
km/h
Gust
km/h
Spd
kts
Gust
kts
02/08:30am 6.9 -2.1 4.6 85 1.0 W 41 52 22 28 1020.4 - 5.4
02/08:13am 6.8 -3.2 4.1 83 1.2 W 46 65 25 35 1019.9 - 5.2
02/08:00am 7.1 -4.2 3.5 78 1.5 W 52 57 28 31 1019.6 1019.6 5.0
02/07:30am 6.5 -4.9 3.1 79 1.4 W 52 72 28 39 1019.4 - 5.0
02/07:22am 6.8 -5.1 1.9 71 2.0 W 54 72 29 39 1019.2 - 5.0
02/07:20am 7.3 -3.6 3.4 76 1.7 W 50 67 27 36 1019.2 - 5.0
02/07:00am 7.1 -1.8 3.2 76 1.6 W 39 48 21 26 1018.8 1018.9 5.0
02/06:30am 6.4 -3.4 2.1 74 1.8 W 43 57 23 31 1018.2 - 5.0
02/06:00am 6.9 -2.8 2.6 74 1.8 W 43 54 23 29 1017.9 1018.0 5.0
02/05:33am 7.4 -2.6 2.1 69 2.2 W 44 70 24 38 1017.5 - 5.0
02/05:30am 7.1 -2.4 1.8 69 2.2 W 41 54 22 29 1017.5 - 5.0
02/05:00am 6.2 -1.7 2.5 77 1.5 W 33 43 18 23 1017.6 1017.7 5.0
02/04:30am 6.5 -2.4 3.1 79 1.4 W 39 50 21 27 1017.6 - 5.0
02/04:00am 6.3 -5.6 2.0 74 1.7 W 54 74 29 40 1017.2 1017.3 5.0
02/03:46am 6.5 -3.5 0.8 67 2.3 W 43 85 23 46 1017.0 - 5.0
02/03:45am 7.5 -1.8 3.0 73 1.9 W 41 65 22 35 1017.2 - 5.0
02/03:30am 6.6 -2.2 1.5 70 2.1 W 37 44 20 24 1017.0 - 5.0
02/03:07am 6.7 -2.7 2.2 73 1.8 W 41 59 22 32 1016.7 - 5.0
02/03:00am 6.6 -3.2 2.3 74 1.8 W 43 50 23 27 1016.8 1016.9 5.0
02/02:41am 6.0 -2.1 3.0 81 1.2 WNW 35 41 19 22 1016.8 - 5.0
02/02:30am 7.1 -3.6 2.6 73 1.9 WSW 48 67 26 36 1016.6 - 5.0
02/02:02am 6.6 -3.0 3.2 79 1.4 W 43 61 23 33 1016.7 - 5.0
02/02:00am 6.3 -3.6 2.8 78 1.4 W 44 61 24 33 1016.7 1016.8 5.0
02/01:30am 5.7 -5.0 2.7 81 1.2 W 48 69 26 37 1016.1 - 4.8
02/01:03am 6.9 -2.5 2.4 73 1.9 W 41 61 22 33 1015.9 - 4.4
02/01:00am 6.6 -3.3 1.7 71 2.0 W 43 52 23 28 1015.8 1015.9 4.4
02/12:30am 5.9 -2.4 2.4 78 1.4 W 35 61 19 33 1015.3 - 4.4
02/12:17am 7.1 -2.8 1.8 69 2.2 WSW 43 61 23 33 1015.0 - 4.4
02/12:00am 7.3 -2.7 0.7 63 2.6 W 43 57 23 31 1014.9 1015.0 4.4
 
Date/Time
EST
Temp
°C
App
Temp
°C
Dew
Point
Rel
Hum
%
Delta-T
°C
Wind Press
QNH
hPa
Press
MSL
hPa
Rain
since 9 am
mm
Dir
 
Spd
km/h
Gust
km/h
Spd
kts
Gust
kts
01/11:31pm 7.4 -2.7 0.6 62 2.7 WSW 43 61 23 33 1014.5 - 4.4
01/11:30pm 7.3 -2.5 0.1 60 2.8 WSW 41 54 22 29 1014.5 - 4.4
01/11:13pm 6.8 -2.5 0.9 66 2.3 W 39 46 21 25 1014.3 - 4.4
01/11:00pm 7.0 -1.9 0.5 63 2.6 SW 37 56 20 30 1014.4 1014.5 4.4
01/10:52pm 7.4 -2.1 -1.0 55 3.2 SW 39 57 21 31 1014.2 - 4.4
01/10:30pm 6.7 -2.2 0.6 65 2.4 WSW 37 54 20 29 1013.9 - 4.4
01/10:04pm 6.3 -2.3 0.4 66 2.3 WSW 35 54 19 29 1013.5 - 4.4
01/10:00pm 6.4 -1.7 1.1 69 2.1 WSW 33 50 18 27 1013.3 1013.4 4.4
01/09:30pm 6.9 -2.9 2.0 71 2.0 SW 43 63 23 34 1012.7 - 4.4
01/09:00pm 7.0 -2.0 0.0 61 2.7 SW 37 59 20 32 1012.2 1012.3 4.4
01/08:36pm 5.7 -3.4 2.0 77 1.5 WSW 39 57 21 31 1012.1 - 4.0
01/08:30pm 6.2 -3.6 2.3 76 1.6 WSW 43 57 23 31 1011.7 - 3.6
01/08:06pm 6.3 -0.9 0.8 68 2.2 SW 28 46 15 25 1010.9 - 3.6
01/08:00pm 5.5 -0.3 2.2 79 1.3 SW 22 37 12 20 1010.8 1010.9 3.4
01/07:44pm 4.4 -3.1 1.1 79 1.3 S 30 54 16 29 1011.1 - 2.8
01/07:30pm 4.5 -1.1 1.0 78 1.4 SW 20 35 11 19 1010.7 - 2.0
01/07:29pm 4.4 -0.8 0.4 75 1.5 SW 17 30 9 16 1010.7 - 2.0
01/07:23pm 5.5 -3.3 1.2 74 1.7 S 37 61 20 33 1010.7 - 1.6
01/07:21pm 5.6 -2.5 0.8 71 1.9 S 33 46 18 25 1010.6 - 1.4
01/07:00pm 6.5 -2.9 0.0 63 2.5 SW 39 63 21 34 1009.6 1009.7 1.4
01/06:39pm 7.1 -2.4 1.6 68 2.2 SW 41 70 22 38 1008.7 - 1.4
01/06:30pm 6.9 -3.3 -0.1 61 2.7 SW 43 57 23 31 1008.3 - 1.4
01/06:00pm 6.9 -0.9 1.4 68 2.2 SW 32 63 17 34 1007.5 1007.6 1.4
01/05:36pm 7.4 -0.5 2.3 70 2.1 WSW 33 54 18 29 1006.4 - 1.4
01/05:30pm 6.7 -1.1 1.4 69 2.1 WSW 32 44 17 24 1006.2 - 1.2
01/05:07pm 7.0 -2.9 1.7 69 2.2 SW 43 61 23 33 1005.2 - 1.2
01/05:00pm 7.6 -2.6 1.2 64 2.6 SW 44 59 24 32 1005.1 1005.1 1.2
01/04:32pm 7.9 -1.9 2.2 67 2.4 SW 43 61 23 33 1004.2 - 1.2
01/04:30pm 7.9 -2.3 1.1 62 2.8 SW 44 61 24 33 1004.1 - 1.2
01/04:00pm 7.7 0.5 0.7 61 2.8 SW 28 50 15 27 1003.1 1003.1 1.2
01/03:57pm 7.3 1.7 1.2 65 2.5 SW 20 37 11 20 1003.1 - 1.2
01/03:51pm 7.2 -3.0 -0.5 58 3.0 S 43 61 23 33 1003.1 - 1.2
01/03:30pm 8.7 -0.1 1.1 59 3.1 SW 37 61 20 33 1002.3 - 1.2
01/03:00pm 9.1 -2.3 0.6 55 3.5 SW 50 69 27 37 1001.1 1001.2 1.2
01/02:44pm 8.8 -1.7 1.2 59 3.1 SW 46 65 25 35 1000.6 - 1.2
01/02:40pm 8.7 -0.9 1.4 60 3.0 SW 41 52 22 28 1000.4 - 1.2
01/02:30pm 8.1 -0.2 1.9 65 2.6 S 35 59 19 32 1000.2 - 1.2
01/02:19pm 8.0 -2.4 2.0 66 2.5 S 46 72 25 39 999.8 - 1.2
01/02:16pm 8.3 -0.7 2.5 67 2.4 SW 39 57 21 31 999.8 - 1.2
01/02:09pm 8.0 -5.1 0.5 59 3.0 SW 59 78 32 42 999.6 - 1.2
01/02:05pm 7.8 -6.6 -0.2 57 3.1 SW 65 78 35 42 999.5 - 1.2
01/02:00pm 8.2 -2.3 1.4 62 2.8 SW 46 74 25 40 999.3 999.4 1.2
01/01:30pm 8.4 -1.3 0.6 58 3.1 SW 41 72 22 39 998.3 - 1.2
01/01:00pm 8.3 -1.1 -0.2 55 3.4 SW 39 63 21 34 997.4 997.5 1.2
01/12:30pm 7.4 -2.0 -0.1 59 2.9 SW 39 67 21 36 996.5 - 1.2
01/12:01pm 7.3 -3.3 3.2 75 1.7 SW 48 70 26 38 995.8 - 1.0
01/12:00pm 7.0 -3.1 1.5 68 2.2 SW 44 61 24 33 995.8 995.9 1.0
01/11:59am 7.1 -2.7 2.0 70 2.1 SW 43 59 23 32 995.7 - 1.0
01/11:30am 7.0 -1.1 3.4 78 1.5 SSW 35 61 19 33 995.3 - 1.0
01/11:25am 6.5 -2.9 2.4 75 1.7 S 41 61 22 33 995.2 - 1.0
01/11:11am 6.6 -0.2 3.2 79 1.4 SW 28 46 15 25 994.8 - 0.8
01/11:00am 5.9 -2.9 3.7 86 0.9 S 39 65 21 35 994.7 994.8 0.8
01/10:58am 5.9 -2.9 3.4 84 1.0 S 39 65 21 35 994.7 - 0.8
01/10:56am 6.5 -0.8 4.3 86 0.9 SW 32 59 17 32 994.6 - 0.6
01/10:53am 6.1 -1.4 3.6 84 1.1 SW 32 46 17 25 994.4 - 0.6
01/10:46am 6.5 -3.0 3.7 82 1.2 SSW 43 63 23 34 994.1 - 0.4
01/10:36am 7.5 0.7 3.0 73 1.9 WSW 28 52 15 28 993.4 - 0.4
01/10:30am 6.8 1.6 2.7 75 1.7 WSW 19 43 10 23 993.3 - 0.4
01/10:08am 7.3 0.3 3.9 79 1.5 S 30 48 16 26 992.9 - 0.0
01/10:00am 7.0 0.3 3.4 78 1.5 S 28 41 15 22 992.8 992.9 0.0
01/09:30am 6.6 -0.1 3.6 81 1.3 SSW 28 56 15 30 992.3 - 0.0
01/09:00am 5.8 -1.3 3.5 85 1.0 SW 30 57 16 31 991.5 991.6 15.6
01/08:36am 5.8 -0.8 4.3 90 0.6 SW 28 46 15 25 990.5 - 15.6
01/08:30am 5.0 0.0 3.8 92 0.5 WSW 19 28 10 15 990.5 - 15.2
01/08:01am 5.8 -1.7 3.5 85 1.0 SW 32 43 17 23 989.7 - 12.2
01/08:00am 6.0 -3.5 3.7 85 1.0 W 43 57 23 31 989.6 989.6 12.2
01/07:58am 6.4 -3.4 3.6 82 1.2 W 44 57 24 31 989.4 - 12.0
01/07:37am 6.2 -3.7 2.8 79 1.4 WNW 44 65 24 35 987.4 - 12.0
01/07:30am 6.1 -3.6 2.6 78 1.4 WNW 43 59 23 32 987.1 - 12.0
01/07:05am 5.9 -4.8 2.5 79 1.4 WNW 48 67 26 36 986.8 - 12.0
01/07:00am 5.8 -4.6 2.1 77 1.5 WNW 46 61 25 33 986.5 986.5 12.0
01/06:33am 6.1 -4.3 2.0 75 1.7 WNW 46 65 25 35 986.1 - 12.0
01/06:30am 6.5 -4.6 2.6 76 1.6 WNW 50 65 27 35 986.0 - 12.0
01/06:00am 5.3 -3.8 1.8 78 1.4 NW 39 50 21 27 985.3 985.3 12.0
01/05:30am 4.8 -2.2 1.8 81 1.2 NNW 28 43 15 23 985.2 - 12.0
01/05:00am 5.0 -2.9 1.1 76 1.6 NW 32 50 17 27 985.2 985.2 12.0
01/04:41am 5.4 -2.5 1.3 75 1.6 NW 32 52 17 28 985.3 - 12.0
01/04:30am 5.3 -1.7 1.8 78 1.4 NNW 28 39 15 21 985.3 - 12.0
01/04:12am 6.2 -1.9 0.7 68 2.2 NW 33 52 18 28 985.3 - 12.0
01/04:00am 6.2 -3.1 0.3 66 2.3 NW 39 50 21 27 984.9 984.9 12.0
01/03:49am 5.9 -2.3 0.3 67 2.2 NW 33 52 18 28 984.9 - 12.0
01/03:30am 5.7 -4.3 1.1 72 1.8 NW 43 54 23 29 984.8 - 12.0
01/03:00am 6.1 -2.6 2.0 75 1.7 WNW 37 56 20 30 984.9 984.9 12.0
01/02:31am 5.8 -4.8 0.6 69 2.0 NW 46 65 25 35 984.0 - 12.0
01/02:30am 5.7 -4.8 1.2 73 1.8 NW 46 57 25 31 984.0 - 12.0
01/02:00am 5.5 -5.4 1.6 76 1.6 WNW 48 69 26 37 984.2 984.3 12.0
01/01:35am 5.8 -3.0 1.3 73 1.8 WNW 37 57 20 31 983.9 - 12.0
01/01:30am 5.9 -3.2 2.0 76 1.6 WNW 39 54 21 29 983.6 - 12.0
01/01:00am 4.8 -3.0 1.5 79 1.3 WNW 32 50 17 27 983.3 983.4 12.0
01/12:30am 5.0 -1.1 2.5 84 1.0 NW 24 30 13 16 983.6 - 11.8
01/12:00am 5.2 -4.8 2.4 82 1.2 WNW 44 59 24 32 982.8 982.9 11.4
 
Date/Time
EST
Temp
°C
App
Temp
°C
Dew
Point
Rel
Hum
%
Delta-T
°C
Wind Press
QNH
hPa
Press
MSL
hPa
Rain
since 9 am
mm
Dir
 
Spd
km/h
Gust
km/h
Spd
kts
Gust
kts
31/11:38pm 5.4 -4.4 2.4 81 1.2 NW 43 61 23 33 982.6 - 11.2
31/11:30pm 5.2 -3.8 2.4 82 1.1 NW 39 54 21 29 982.1 - 11.2
31/11:26pm 5.2 -3.0 2.6 83 1.1 NW 35 46 19 25 982.0 - 11.2
31/11:16pm 5.6 -7.1 2.8 82 1.2 WNW 59 78 32 42 981.8 - 11.2
31/11:00pm 6.2 -7.6 3.0 80 1.4 WNW 65 76 35 41 981.8 981.9 11.0
31/10:58pm 6.0 -7.9 2.6 79 1.4 WNW 65 76 35 41 981.7 - 11.0
31/10:30pm 5.1 -4.8 2.8 85 0.9 NW 44 65 24 35 981.1 - 11.0
31/10:00pm 5.3 -4.0 2.7 83 1.1 NW 41 65 22 35 980.5 980.6 10.8
31/09:31pm 5.5 -2.6 3.3 86 0.9 WNW 35 54 19 29 981.2 - 10.8
31/09:30pm 5.6 -2.9 3.4 86 0.9 WNW 37 54 20 29 981.1 - 10.4
31/09:00pm 6.2 -1.9 3.2 81 1.3 NW 35 54 19 29 980.4 980.5 10.0
31/08:48pm 6.4 -1.2 3.0 79 1.4 WNW 32 52 17 28 980.0 - 10.0
31/08:30pm 5.9 -0.5 3.1 82 1.2 NW 26 37 14 20 979.7 - 10.0
31/08:14pm 6.1 -2.0 3.1 81 1.3 NW 35 54 19 29 979.0 - 10.0
31/08:00pm 5.6 -2.0 2.8 82 1.2 NW 32 44 17 24 979.2 979.3 9.8
31/07:30pm 5.4 -2.4 2.9 84 1.0 NNW 33 54 18 29 979.4 - 9.8
31/07:23pm 5.5 -2.7 2.7 82 1.1 NW 35 54 19 29 979.3 - 9.8
31/07:19pm 5.7 -3.3 2.7 81 1.2 NW 39 54 21 29 979.0 - 9.8
31/07:15pm 5.8 -6.9 3.0 82 1.2 NW 59 78 32 42 978.7 - 9.8
31/07:14pm 5.7 -7.5 2.5 80 1.3 NW 61 78 33 42 978.6 - 9.8
31/07:00pm 5.2 -3.3 2.9 85 1.0 NNW 37 80 20 43 979.2 979.3 9.4
31/06:55pm 5.2 -3.1 2.4 82 1.1 NNW 35 80 19 43 979.0 - 9.4
31/06:33pm 5.0 -1.8 3.0 87 0.8 NNW 28 48 15 26 978.9 - 9.2
31/06:30pm 5.0 -1.8 2.9 86 0.9 NNW 28 43 15 23 978.9 - 9.2
31/06:20pm 5.2 -2.1 2.7 84 1.0 NNW 30 56 16 30 979.2 - 9.2
31/06:00pm 4.9 -0.4 2.9 87 0.8 NNW 20 30 11 16 979.0 979.1 9.2
31/05:30pm 5.3 0.1 3.5 88 0.8 NNW 20 32 11 17 979.4 - 9.2
31/05:00pm 5.2 1.0 3.7 90 0.6 NNW 15 24 8 13 979.3 979.4 9.2
31/04:30pm 5.1 -0.4 3.8 91 0.5 NNE 22 33 12 18 978.5 - 9.2
31/04:00pm 5.0 -0.2 3.7 91 0.6 N 20 32 11 17 979.4 979.5 9.2
31/03:30pm 5.0 0.4 3.7 91 0.5 N 17 22 9 12 980.2 - 9.2
31/03:00pm 4.9 0.3 3.6 91 0.6 N 17 22 9 12 979.9 980.0 9.2
31/02:51pm 4.8 -0.2 3.5 91 0.5 N 19 24 10 13 979.8 - 9.2
31/02:30pm 4.9 0.3 3.6 91 0.5 NNW 17 24 9 13 981.8 - 9.0
31/02:00pm 5.1 1.3 3.9 92 0.5 N 13 17 7 9 981.3 981.4 9.0
31/01:30pm 5.3 1.5 4.1 92 0.5 N 13 19 7 10 981.5 - 8.6
31/01:00pm 5.5 2.2 4.3 92 0.5 N 11 15 6 8 982.1 982.2 8.2
31/12:30pm 5.6 2.6 4.2 91 0.6 WNW 9 15 5 8 982.7 - 7.2
31/12:00pm 6.0 2.7 4.8 92 0.5 NNW 11 15 6 8 983.8 983.9 6.8
31/11:30am 6.1 2.4 4.7 91 0.6 NNW 13 17 7 9 984.0 - 6.0
31/11:00am 5.9 1.8 4.5 91 0.6 N 15 20 8 11 985.0 985.0 5.0
31/10:30am 6.4 2.7 4.7 89 0.7 WNW 13 19 7 10 985.8 - 3.8
31/10:00am 6.6 3.0 4.8 88 0.8 NW 13 22 7 12 986.1 986.1 2.2
31/09:30am 6.6 1.3 4.8 88 0.8 NW 22 35 12 19 986.7 - 0.8
31/09:00am 6.5 1.5 4.5 87 0.9 NNW 20 30 11 16 986.2 986.2 37.4
31/08:30am 6.6 1.7 4.9 89 0.7 N 20 30 11 16 986.5 - 37.4
31/08:00am 6.4 1.0 4.7 89 0.8 N 22 33 12 18 986.9 986.9 37.4
31/07:30am 6.2 1.2 4.4 88 0.8 N 20 30 11 16 987.2 - 37.4
31/07:00am 6.7 1.8 5.0 89 0.8 N 20 33 11 18 987.6 987.6 37.4
31/06:30am 6.4 1.5 5.0 91 0.6 N 20 28 11 15 987.2 - 37.4
31/06:00am 6.3 1.2 4.3 87 0.9 NNW 20 28 11 15 988.8 988.8 37.2
31/05:30am 6.2 0.3 4.0 86 0.9 NW 24 33 13 18 988.8 - 37.0
31/05:00am 6.7 2.7 4.7 87 0.9 NW 15 19 8 10 988.9 988.9 36.6
31/04:30am 6.6 0.9 4.8 88 0.8 W 24 32 13 17 988.6 - 36.6
31/04:10am 6.9 0.1 5.1 88 0.8 WSW 30 50 16 27 989.0 - 36.4
31/04:00am 7.2 0.5 5.5 89 0.8 WSW 30 39 16 21 988.9 988.9 36.0
31/03:30am 7.3 0.3 5.9 91 0.6 W 32 41 17 22 989.1 - 35.2
31/03:00am 7.4 -0.6 5.7 89 0.8 W 37 48 20 26 989.3 989.3 34.8
31/02:30am 7.9 -1.4 6.0 88 0.9 WSW 44 57 24 31 988.9 - 34.4
31/02:00am 8.8 1.1 7.3 90 0.7 W 37 50 20 27 988.8 988.8 32.2
31/01:30am 9.0 3.1 7.6 91 0.7 W 28 39 15 21 988.1 - 30.4
31/01:00am 9.0 4.6 7.3 89 0.8 W 20 26 11 14 987.9 987.9 29.0
31/12:46am 9.2 1.9 7.3 88 0.9 W 35 54 19 29 987.3 - 28.6
31/12:30am 9.6 1.3 7.9 89 0.8 W 41 54 22 29 987.9 - 27.6
31/12:24am 9.4 1.8 7.7 89 0.8 W 37 54 20 29 987.3 - 27.4
31/12:02am 10.7 4.3 8.6 87 1.0 WNW 32 50 17 27 987.5 - 26.2
31/12:00am 10.7 4.1 8.6 87 1.0 NW 33 50 18 27 987.3 987.3 25.8
 
Date/Time
EST
Temp
°C
App
Temp
°C
Dew
Point
Rel
Hum
%
Delta-T
°C
Wind Press
QNH
hPa
Press
MSL
hPa
Rain
since 9 am
mm
Dir
 
Spd
km/h
Gust
km/h
Spd
kts
Gust
kts
30/11:30pm 11.4 3.8 7.7 78 1.8 NW 37 59 20 32 986.5 - 25.0
30/11:00pm 10.7 3.2 8.1 84 1.3 NW 37 57 20 31 986.8 986.8 25.0
30/10:30pm 10.4 4.3 8.3 87 1.0 NNW 30 57 16 31 987.6 - 23.8
30/10:28pm 10.3 4.6 8.4 88 0.9 NNW 28 54 15 29 987.6 - 23.8
30/10:00pm 9.9 5.0 8.5 91 0.7 N 24 37 13 20 987.8 987.8 23.4
30/09:30pm 10.0 5.8 8.4 90 0.8 NNW 20 32 11 17 988.1 - 23.0
30/09:00pm 10.0 6.5 8.6 91 0.7 N 17 24 9 13 988.7 988.7 22.4
30/08:30pm 10.1 5.9 8.4 89 0.8 N 20 33 11 18 989.2 - 22.4
30/08:00pm 10.2 5.2 8.0 86 1.1 NNW 24 35 13 19 989.2 989.2 22.0
30/07:30pm 10.3 6.1 7.5 83 1.3 N 19 30 10 16 989.4 - 21.8
30/07:00pm 10.4 6.0 7.5 82 1.4 NNW 20 28 11 15 990.2 990.2 21.8
30/06:30pm 10.3 1.3 7.2 81 1.5 NW 44 59 24 32 990.5 - 21.6
30/06:23pm 10.3 3.4 7.2 81 1.5 NW 33 52 18 28 990.6 - 21.6
30/06:14pm 9.7 3.1 7.6 87 1.0 NNW 32 44 17 24 990.9 - 21.6
30/06:00pm 8.6 5.2 7.5 93 0.5 N 15 26 8 14 991.1 991.2 21.2
30/05:30pm 8.4 5.3 7.3 93 0.5 N 13 15 7 8 990.8 - 21.0
30/05:00pm 8.6 6.0 7.7 94 0.4 N 11 17 6 9 991.6 991.7 19.0
30/04:30pm 8.7 5.3 7.6 93 0.5 N 15 17 8 9 991.6 - 16.8
30/04:00pm 8.6 5.6 7.5 93 0.5 NNE 13 15 7 8 992.1 992.2 15.2
30/03:30pm 8.5 6.2 7.3 92 0.6 N 9 11 5 6 992.5 - 13.0
30/03:00pm 8.7 6.4 7.5 92 0.6 N 9 13 5 7 992.6 992.7 10.6
30/02:30pm 8.7 5.6 7.3 91 0.7 NNE 13 15 7 8 992.9 - 9.6
30/02:00pm 8.8 7.0 7.1 89 0.8 N 6 9 3 5 993.0 993.1 8.2
30/01:30pm 9.0 4.7 7.0 87 0.9 W 19 30 10 16 993.3 - 7.0
30/01:00pm 9.4 5.1 7.2 86 1.1 WNW 19 28 10 15 992.9 993.0 6.4
30/12:30pm 9.5 5.8 7.8 89 0.8 NW 17 22 9 12 993.0 - 6.2
30/12:00pm 9.6 3.7 7.7 88 0.9 W 28 39 15 21 993.3 993.4 4.2
30/11:30am 10.0 3.9 8.3 89 0.8 W 30 39 16 21 993.4 - 2.4
30/11:00am 10.4 2.4 7.5 82 1.4 WNW 39 61 21 33 992.7 992.8 0.8
30/10:30am 10.4 2.7 7.3 81 1.5 NW 37 57 20 31 992.1 - 0.6
30/10:21am 10.2 2.5 7.3 82 1.4 NW 37 57 20 31 992.5 - 0.6
30/10:00am 10.0 2.6 6.7 80 1.6 NW 35 46 19 25 992.8 992.9 0.4
30/09:30am 8.5 3.1 6.5 87 0.9 NNW 24 33 13 18 992.9 - 0.2
30/09:00am 7.9 2.4 5.9 87 0.9 NNW 24 37 13 20 993.3 993.4 7.2

Other Formats:

Comma delimited format used in spreadsheet applications
http://www.bom.gov.au/fwo/IDT60801/IDT60801.95967.axf

JavaScript Object Notation format (JSON) in row-major order
http://www.bom.gov.au/fwo/IDT60801/IDT60801.95967.json